MAPA DE AEROPUERTO

INFORMACIÓN METAR y TAF


Deprecated: The each() function is deprecated. This message will be suppressed on further calls in /home/customer/www/clickair-va.com/public_html/VAM/vam/helpers/get_metar.php on line 20
METAR FOR EKCH
ADDS - METARS form results

(0440 UTC 25 May 2022)
Data provider http://aviationweather.gov/metar/data/
 
METAR text: EKCH 250420Z AUTO 22007KT 9999 FEW015/// SCT032/// 12/10 Q1010 NOSIG
Conditions at: EKCH (COPENHAGEN/KASTR, DK) observed 0420 UTC 25 May 2022
Temperature: 12.0°C (54°F)
Dewpoint: 10.0°C (50°F) [RH = 88%]
Pressure (altimeter): 29.82 inches Hg (1010.0 mb)
Winds: from the SW (220 degrees) at 8 MPH (7 knots; 3.6 m/s)
Visibility: 6 or more miles (10+ km)
Ceiling: at least 12,000 feet AGL
Clouds: few clouds at 1500 feet AGL
scattered clouds at 3200 feet AGL
Weather: no significant weather observed at this time

METAR text: EKCH 250350Z AUTO 22007KT 9999 FEW014/// FEW026/// 11/09 Q1010 NOSIG
Conditions at: EKCH (COPENHAGEN/KASTR, DK) observed 0350 UTC 25 May 2022
Temperature: 11.0°C (52°F)
Dewpoint: 9.0°C (48°F) [RH = 87%]
Pressure (altimeter): 29.82 inches Hg (1010.0 mb)
Winds: from the SW (220 degrees) at 8 MPH (7 knots; 3.6 m/s)
Visibility: 6 or more miles (10+ km)
Ceiling: at least 12,000 feet AGL
Clouds: few clouds at 1400 feet AGL
few clouds at 2600 feet AGL
Weather: no significant weather observed at this time

Forecast for: EKCH (COPENHAGEN/KASTR, DK)
Text: TAF EKCH 242301Z 2500/2524 22008KT 9999 BKN020
Forecast period: 0000 UTC 25 May 2022 to 0000 UTC 26 May 2022
Forecast type: FROM: standard forecast or significant change
Winds: from the SW (220 degrees) at 9 MPH (8 knots; 4.1 m/s)
Visibility: 6 or more miles (10+ km)
Ceiling: 2000 feet AGL
Clouds: broken clouds at 2000 feet AGL
Weather: no significant weather forecast for this period
Text: TEMPO 2510/2518 SHRA SCT020CB
Forecast period: 1000 to 1800 UTC 25 May 2022
Forecast type: TEMPORARY: The following changes expected for less than half the time period
Visibility: missing
Ceiling: at least 12,000 feet AGL
Clouds: scattered clouds at 2000 feet AGL
Weather: SHRA  (rain showers)